sensor_id;sensor_type;location;lat;lon;timestamp;pressure;altitude;pressure_sealevel;temperature;humidity
22572;BME280;11452;53.368;14.658;2022-07-23T00:02:13;101167.00;;;19.47;67.30
22572;BME280;11452;53.368;14.658;2022-07-23T00:07:19;101173.52;;;19.50;67.24
22572;BME280;11452;53.368;14.658;2022-07-23T00:12:24;101161.72;;;19.97;65.31
22572;BME280;11452;53.368;14.658;2022-07-23T00:17:30;101153.02;;;19.57;66.81
22572;BME280;11452;53.368;14.658;2022-07-23T00:22:36;101146.69;;;19.42;66.41
22572;BME280;11452;53.368;14.658;2022-07-23T00:27:44;101144.63;;;19.34;67.40
22572;BME280;11452;53.368;14.658;2022-07-23T00:32:51;101156.72;;;19.30;67.10
22572;BME280;11452;53.368;14.658;2022-07-23T00:37:59;101142.36;;;19.24;67.73
22572;BME280;11452;53.368;14.658;2022-07-23T00:43:05;101135.81;;;19.06;67.76
22572;BME280;11452;53.368;14.658;2022-07-23T00:48:11;101145.41;;;19.10;67.97
22572;BME280;11452;53.368;14.658;2022-07-23T00:53:16;101143.94;;;19.06;68.00
22572;BME280;11452;53.368;14.658;2022-07-23T00:58:22;101148.88;;;19.00;68.24
22572;BME280;11452;53.368;14.658;2022-07-23T01:03:27;101138.06;;;18.95;68.38
22572;BME280;11452;53.368;14.658;2022-07-23T01:08:33;101125.37;;;18.95;68.68
22572;BME280;11452;53.368;14.658;2022-07-23T01:13:43;101125.13;;;18.98;68.85
22572;BME280;11452;53.368;14.658;2022-07-23T01:18:48;101123.51;;;19.01;68.81
22572;BME280;11452;53.368;14.658;2022-07-23T01:23:54;101115.38;;;19.01;68.82
22572;BME280;11452;53.368;14.658;2022-07-23T01:29:00;101129.05;;;19.00;68.81
22572;BME280;11452;53.368;14.658;2022-07-23T01:34:08;101127.02;;;18.92;69.01
22572;BME280;11452;53.368;14.658;2022-07-23T01:39:13;101122.43;;;18.93;69.19
22572;BME280;11452;53.368;14.658;2022-07-23T01:44:20;101111.26;;;18.92;69.03
22572;BME280;11452;53.368;14.658;2022-07-23T01:49:26;101125.92;;;18.89;68.96
22572;BME280;11452;53.368;14.658;2022-07-23T01:54:34;101132.70;;;18.84;69.06
22572;BME280;11452;53.368;14.658;2022-07-23T01:59:41;101122.75;;;18.79;69.21
22572;BME280;11452;53.368;14.658;2022-07-23T02:04:48;101134.08;;;18.78;69.33
22572;BME280;11452;53.368;14.658;2022-07-23T02:09:55;101129.28;;;18.76;69.26
22572;BME280;11452;53.368;14.658;2022-07-23T02:15:00;101132.11;;;18.75;69.28
22572;BME280;11452;53.368;14.658;2022-07-23T02:20:08;101124.89;;;18.70;69.37
22572;BME280;11452;53.368;14.658;2022-07-23T02:25:14;101128.59;;;18.68;69.40
22572;BME280;11452;53.368;14.658;2022-07-23T02:30:19;101145.95;;;18.66;69.39
22572;BME280;11452;53.368;14.658;2022-07-23T02:35:25;101138.45;;;18.64;69.52
22572;BME280;11452;53.368;14.658;2022-07-23T02:40:32;101138.42;;;18.58;69.56
22572;BME280;11452;53.368;14.658;2022-07-23T02:45:38;101124.53;;;18.63;69.61
22572;BME280;11452;53.368;14.658;2022-07-23T02:50:45;101126.64;;;18.59;69.38
22572;BME280;11452;53.368;14.658;2022-07-23T02:55:52;101127.88;;;18.55;69.39
22572;BME280;11452;53.368;14.658;2022-07-23T03:00:58;101110.40;;;18.54;69.27
22572;BME280;11452;53.368;14.658;2022-07-23T03:06:04;101109.54;;;18.53;69.37
22572;BME280;11452;53.368;14.658;2022-07-23T03:11:10;101102.41;;;18.52;69.69
22572;BME280;11452;53.368;14.658;2022-07-23T03:16:16;101104.49;;;18.54;69.44
22572;BME280;11452;53.368;14.658;2022-07-23T03:21:22;101103.62;;;18.54;69.32
22572;BME280;11452;53.368;14.658;2022-07-23T03:26:28;101106.34;;;18.54;69.47
22572;BME280;11452;53.368;14.658;2022-07-23T03:31:34;101103.75;;;18.52;69.41
22572;BME280;11452;53.368;14.658;2022-07-23T03:36:40;101109.41;;;18.55;69.74
22572;BME280;11452;53.368;14.658;2022-07-23T03:41:47;101123.44;;;18.60;69.50
22572;BME280;11452;53.368;14.658;2022-07-23T03:46:52;101115.68;;;18.61;69.52
22572;BME280;11452;53.368;14.658;2022-07-23T03:51:58;101112.48;;;18.61;69.50
22572;BME280;11452;53.368;14.658;2022-07-23T03:57:03;101106.19;;;18.66;69.38
22572;BME280;11452;53.368;14.658;2022-07-23T04:02:09;101111.23;;;18.71;69.27
22572;BME280;11452;53.368;14.658;2022-07-23T04:07:15;101112.17;;;18.76;69.45
22572;BME280;11452;53.368;14.658;2022-07-23T04:12:22;101124.47;;;18.80;69.24
22572;BME280;11452;53.368;14.658;2022-07-23T04:17:28;101134.55;;;18.83;69.07
22572;BME280;11452;53.368;14.658;2022-07-23T04:22:34;101125.45;;;18.79;68.86
22572;BME280;11452;53.368;14.658;2022-07-23T04:27:40;101119.77;;;18.87;69.01
22572;BME280;11452;53.368;14.658;2022-07-23T04:32:46;101100.00;;;18.96;68.60
22572;BME280;11452;53.368;14.658;2022-07-23T04:37:56;101092.50;;;19.15;69.19
22572;BME280;11452;53.368;14.658;2022-07-23T04:43:04;101089.88;;;19.25;68.56
22572;BME280;11452;53.368;14.658;2022-07-23T04:48:11;101086.91;;;19.43;68.24
22572;BME280;11452;53.368;14.658;2022-07-23T04:53:17;101092.56;;;19.66;67.08
22572;BME280;11452;53.368;14.658;2022-07-23T04:58:24;101091.47;;;19.63;66.12
22572;BME280;11452;53.368;14.658;2022-07-23T05:03:30;101099.02;;;19.39;64.78
22572;BME280;11452;53.368;14.658;2022-07-23T05:08:35;101108.13;;;19.38;65.68
22572;BME280;11452;53.368;14.658;2022-07-23T05:13:41;101107.25;;;19.64;65.75
22572;BME280;11452;53.368;14.658;2022-07-23T05:18:46;101110.11;;;19.87;65.13
22572;BME280;11452;53.368;14.658;2022-07-23T05:23:52;101089.72;;;19.93;64.17
22572;BME280;11452;53.368;14.658;2022-07-23T05:28:58;101092.17;;;20.05;64.06
22572;BME280;11452;53.368;14.658;2022-07-23T05:34:04;101099.95;;;20.29;63.06
22572;BME280;11452;53.368;14.658;2022-07-23T05:39:10;101108.19;;;20.58;63.14
22572;BME280;11452;53.368;14.658;2022-07-23T05:44:16;101103.95;;;20.50;60.75
22572;BME280;11452;53.368;14.658;2022-07-23T05:49:22;101120.20;;;20.75;61.76
22572;BME280;11452;53.368;14.658;2022-07-23T05:54:29;101110.74;;;20.79;60.17
22572;BME280;11452;53.368;14.658;2022-07-23T05:59:35;101125.28;;;20.93;59.72
22572;BME280;11452;53.368;14.658;2022-07-23T06:04:40;101120.55;;;21.24;59.23
22572;BME280;11452;53.368;14.658;2022-07-23T06:09:48;101133.97;;;21.16;58.32
22572;BME280;11452;53.368;14.658;2022-07-23T06:14:53;101132.99;;;21.07;58.06
22572;BME280;11452;53.368;14.658;2022-07-23T06:19:59;101144.44;;;20.72;56.58
22572;BME280;11452;53.368;14.658;2022-07-23T06:25:05;101153.09;;;20.72;56.87
22572;BME280;11452;53.368;14.658;2022-07-23T06:30:13;101155.45;;;20.71;57.39
22572;BME280;11452;53.368;14.658;2022-07-23T06:35:22;101152.59;;;20.72;57.12
22572;BME280;11452;53.368;14.658;2022-07-23T06:40:27;101143.21;;;21.00;57.80
22572;BME280;11452;53.368;14.658;2022-07-23T06:45:33;101136.56;;;20.98;57.17
22572;BME280;11452;53.368;14.658;2022-07-23T06:50:38;101119.13;;;20.91;56.97
22572;BME280;11452;53.368;14.658;2022-07-23T06:55:44;101130.20;;;20.84;57.68
22572;BME280;11452;53.368;14.658;2022-07-23T07:00:49;101105.46;;;20.87;57.97
22572;BME280;11452;53.368;14.658;2022-07-23T07:05:56;101109.62;;;20.91;58.70
22572;BME280;11452;53.368;14.658;2022-07-23T07:11:02;101134.77;;;21.03;59.22
22572;BME280;11452;53.368;14.658;2022-07-23T07:16:08;101141.23;;;21.31;60.71
22572;BME280;11452;53.368;14.658;2022-07-23T07:21:13;101144.47;;;21.91;60.23
22572;BME280;11452;53.368;14.658;2022-07-23T07:26:19;101138.17;;;21.90;60.70
22572;BME280;11452;53.368;14.658;2022-07-23T07:31:24;101149.45;;;21.68;59.92
22572;BME280;11452;53.368;14.658;2022-07-23T07:36:30;101121.53;;;21.66;60.30
22572;BME280;11452;53.368;14.658;2022-07-23T07:41:37;101136.92;;;21.85;60.29
22572;BME280;11452;53.368;14.658;2022-07-23T07:46:42;101138.02;;;21.92;58.83
22572;BME280;11452;53.368;14.658;2022-07-23T07:51:48;101135.13;;;21.66;59.27
22572;BME280;11452;53.368;14.658;2022-07-23T07:56:53;101117.06;;;21.51;59.04
22572;BME280;11452;53.368;14.658;2022-07-23T08:01:59;101136.42;;;21.62;59.75
22572;BME280;11452;53.368;14.658;2022-07-23T08:07:04;101136.50;;;21.56;58.51
22572;BME280;11452;53.368;14.658;2022-07-23T08:12:10;101127.09;;;21.41;59.46
22572;BME280;11452;53.368;14.658;2022-07-23T08:17:15;101133.29;;;21.33;59.07
22572;BME280;11452;53.368;14.658;2022-07-23T08:22:21;101129.17;;;21.43;59.51
22572;BME280;11452;53.368;14.658;2022-07-23T08:27:27;101124.45;;;21.35;59.22
22572;BME280;11452;53.368;14.658;2022-07-23T08:32:32;101118.37;;;21.37;58.95
22572;BME280;11452;53.368;14.658;2022-07-23T08:37:41;101124.02;;;21.40;60.40
22572;BME280;11452;53.368;14.658;2022-07-23T08:42:49;101127.16;;;21.45;60.09
22572;BME280;11452;53.368;14.658;2022-07-23T08:47:57;101114.84;;;21.51;60.56
22572;BME280;11452;53.368;14.658;2022-07-23T08:53:06;101126.61;;;21.65;60.76
22572;BME280;11452;53.368;14.658;2022-07-23T08:58:13;101144.61;;;21.75;60.36
22572;BME280;11452;53.368;14.658;2022-07-23T09:03:20;101147.33;;;21.75;60.48
22572;BME280;11452;53.368;14.658;2022-07-23T09:08:37;101145.25;;;21.97;60.79
22572;BME280;11452;53.368;14.658;2022-07-23T09:13:54;101132.08;;;22.02;60.97
22572;BME280;11452;53.368;14.658;2022-07-23T09:19:03;101131.13;;;22.21;61.51
22572;BME280;11452;53.368;14.658;2022-07-23T09:24:12;101128.33;;;22.30;59.64
22572;BME280;11452;53.368;14.658;2022-07-23T09:29:24;101124.02;;;22.24;60.03
22572;BME280;11452;53.368;14.658;2022-07-23T09:34:32;101120.53;;;22.18;58.37
22572;BME280;11452;53.368;14.658;2022-07-23T09:39:39;101137.48;;;21.88;57.76
22572;BME280;11452;53.368;14.658;2022-07-23T09:44:48;101112.80;;;21.76;58.31
22572;BME280;11452;53.368;14.658;2022-07-23T09:50:10;101116.72;;;21.87;58.08
22572;BME280;11452;53.368;14.658;2022-07-23T09:55:18;101116.93;;;22.31;59.27
22572;BME280;11452;53.368;14.658;2022-07-23T10:00:24;101124.14;;;22.36;57.48
22572;BME280;11452;53.368;14.658;2022-07-23T10:05:30;101125.98;;;22.63;57.05
22572;BME280;11452;53.368;14.658;2022-07-23T10:10:41;101119.59;;;22.72;56.57
22572;BME280;11452;53.368;14.658;2022-07-23T10:15:54;101122.27;;;22.68;54.20
22572;BME280;11452;53.368;14.658;2022-07-23T10:21:04;101117.52;;;22.70;55.26
22572;BME280;11452;53.368;14.658;2022-07-23T10:26:12;101124.50;;;23.04;54.03
22572;BME280;11452;53.368;14.658;2022-07-23T10:36:47;101140.95;;;23.12;52.82
22572;BME280;11452;53.368;14.658;2022-07-23T10:42:08;101130.75;;;23.36;52.13
22572;BME280;11452;53.368;14.658;2022-07-23T10:47:28;101140.12;;;23.55;51.84
22572;BME280;11452;53.368;14.658;2022-07-23T10:53:17;101135.88;;;23.87;51.16
22572;BME280;11452;53.368;14.658;2022-07-23T10:58:45;101132.77;;;23.81;50.44
22572;BME280;11452;53.368;14.658;2022-07-23T11:03:37;101145.36;;;24.12;50.41
22572;BME280;11452;53.368;14.658;2022-07-23T11:08:43;101157.17;;;24.17;49.56
22572;BME280;11452;53.368;14.658;2022-07-23T11:13:49;101150.16;;;24.14;49.48
22572;BME280;11452;53.368;14.658;2022-07-23T11:18:58;101134.39;;;24.00;48.18
22572;BME280;11452;53.368;14.658;2022-07-23T11:24:06;101149.14;;;24.15;48.04
22572;BME280;11452;53.368;14.658;2022-07-23T11:34:42;101139.02;;;24.38;47.19
22572;BME280;11452;53.368;14.658;2022-07-23T11:39:47;101139.95;;;24.21;45.89
22572;BME280;11452;53.368;14.658;2022-07-23T11:44:53;101134.28;;;23.80;46.15
22572;BME280;11452;53.368;14.658;2022-07-23T11:50:01;101130.06;;;23.86;46.52
22572;BME280;11452;53.368;14.658;2022-07-23T11:55:09;101130.78;;;23.92;46.45
22572;BME280;11452;53.368;14.658;2022-07-23T12:00:22;101126.60;;;23.79;46.94
22572;BME280;11452;53.368;14.658;2022-07-23T12:05:27;101137.93;;;23.89;45.76
22572;BME280;11452;53.368;14.658;2022-07-23T12:10:38;101124.00;;;24.04;46.06
22572;BME280;11452;53.368;14.658;2022-07-23T12:15:46;101128.92;;;24.00;45.59
22572;BME280;11452;53.368;14.658;2022-07-23T12:20:54;101129.20;;;24.23;45.81
22572;BME280;11452;53.368;14.658;2022-07-23T12:26:03;101116.16;;;24.47;45.31
22572;BME280;11452;53.368;14.658;2022-07-23T12:31:10;101126.04;;;24.40;43.55
22572;BME280;11452;53.368;14.658;2022-07-23T12:36:19;101124.22;;;24.61;44.27
22572;BME280;11452;53.368;14.658;2022-07-23T12:41:25;101117.56;;;24.75;43.29
22572;BME280;11452;53.368;14.658;2022-07-23T12:46:33;101113.02;;;25.00;44.01
22572;BME280;11452;53.368;14.658;2022-07-23T12:51:39;101119.31;;;26.13;41.65
22572;BME280;11452;53.368;14.658;2022-07-23T12:56:46;101119.31;;;26.13;41.65
22572;BME280;11452;53.368;14.658;2022-07-23T13:01:56;101123.91;;;25.69;41.21
22572;BME280;11452;53.368;14.658;2022-07-23T13:07:06;101119.84;;;25.08;41.77
22572;BME280;11452;53.368;14.658;2022-07-23T13:12:12;101110.94;;;25.35;42.53
22572;BME280;11452;53.368;14.658;2022-07-23T13:17:17;101109.36;;;25.57;41.38
22572;BME280;11452;53.368;14.658;2022-07-23T13:22:24;101114.01;;;25.24;41.40
22572;BME280;11452;53.368;14.658;2022-07-23T13:27:29;101110.25;;;25.29;41.65
22572;BME280;11452;53.368;14.658;2022-07-23T13:32:37;101108.85;;;25.45;41.72
22572;BME280;11452;53.368;14.658;2022-07-23T13:37:42;101109.45;;;25.96;41.92
22572;BME280;11452;53.368;14.658;2022-07-23T13:42:48;101116.27;;;26.43;42.07
22572;BME280;11452;53.368;14.658;2022-07-23T13:47:54;101109.31;;;26.20;39.37
22572;BME280;11452;53.368;14.658;2022-07-23T13:53:07;101115.95;;;25.95;39.82
22572;BME280;11452;53.368;14.658;2022-07-23T13:58:14;101110.16;;;25.85;39.57
22572;BME280;11452;53.368;14.658;2022-07-23T14:03:23;101104.09;;;26.02;40.28
22572;BME280;11452;53.368;14.658;2022-07-23T14:08:30;101101.75;;;25.91;39.39
22572;BME280;11452;53.368;14.658;2022-07-23T14:13:36;101105.19;;;25.89;40.00
22572;BME280;11452;53.368;14.658;2022-07-23T14:18:41;101101.67;;;26.11;39.96
22572;BME280;11452;53.368;14.658;2022-07-23T14:23:47;101106.80;;;26.14;39.26
22572;BME280;11452;53.368;14.658;2022-07-23T14:28:53;101101.77;;;25.83;39.90
22572;BME280;11452;53.368;14.658;2022-07-23T14:33:58;101100.58;;;25.81;40.30
22572;BME280;11452;53.368;14.658;2022-07-23T14:39:06;101104.17;;;25.82;40.52
22572;BME280;11452;53.368;14.658;2022-07-23T14:44:14;101101.65;;;25.72;40.76
22572;BME280;11452;53.368;14.658;2022-07-23T14:49:19;101111.41;;;25.63;40.61
22572;BME280;11452;53.368;14.658;2022-07-23T14:54:26;101114.50;;;25.47;40.94
22572;BME280;11452;53.368;14.658;2022-07-23T14:59:31;101130.11;;;25.14;41.43
22572;BME280;11452;53.368;14.658;2022-07-23T15:04:37;101116.76;;;25.07;42.06
22572;BME280;11452;53.368;14.658;2022-07-23T15:09:43;101112.66;;;25.07;42.11
22572;BME280;11452;53.368;14.658;2022-07-23T15:14:48;101117.30;;;25.03;42.41
22572;BME280;11452;53.368;14.658;2022-07-23T15:19:55;101114.89;;;24.96;42.56
22572;BME280;11452;53.368;14.658;2022-07-23T15:25:01;101118.48;;;24.96;42.83
22572;BME280;11452;53.368;14.658;2022-07-23T15:30:07;101116.94;;;24.98;43.06
22572;BME280;11452;53.368;14.658;2022-07-23T15:35:13;101115.74;;;24.96;43.12
22572;BME280;11452;53.368;14.658;2022-07-23T15:40:19;101122.36;;;24.90;43.15
22572;BME280;11452;53.368;14.658;2022-07-23T15:45:24;101116.25;;;24.96;43.71
22572;BME280;11452;53.368;14.658;2022-07-23T15:50:30;101123.08;;;25.08;43.86
22572;BME280;11452;53.368;14.658;2022-07-23T15:55:35;101114.55;;;25.19;43.78
22572;BME280;11452;53.368;14.658;2022-07-23T16:00:42;101111.28;;;25.32;44.80
22572;BME280;11452;53.368;14.658;2022-07-23T16:05:49;101123.91;;;25.53;43.03
22572;BME280;11452;53.368;14.658;2022-07-23T16:10:55;101118.97;;;25.24;42.94
22572;BME280;11452;53.368;14.658;2022-07-23T16:16:04;101134.22;;;25.18;42.52
22572;BME280;11452;53.368;14.658;2022-07-23T16:21:10;101129.06;;;25.07;42.56
22572;BME280;11452;53.368;14.658;2022-07-23T16:26:19;101135.23;;;25.13;42.70
22572;BME280;11452;53.368;14.658;2022-07-23T16:31:25;101129.94;;;25.20;40.87
22572;BME280;11452;53.368;14.658;2022-07-23T16:36:31;101122.93;;;25.17;41.49
22572;BME280;11452;53.368;14.658;2022-07-23T16:41:38;101129.44;;;25.04;40.00
22572;BME280;11452;53.368;14.658;2022-07-23T16:46:44;101125.27;;;24.88;41.08
22572;BME280;11452;53.368;14.658;2022-07-23T16:51:49;101132.61;;;24.88;40.27
22572;BME280;11452;53.368;14.658;2022-07-23T16:56:55;101143.16;;;24.54;40.30
22572;BME280;11452;53.368;14.658;2022-07-23T17:02:00;101138.55;;;24.55;41.11
22572;BME280;11452;53.368;14.658;2022-07-23T17:07:06;101136.88;;;24.66;41.25
22572;BME280;11452;53.368;14.658;2022-07-23T17:12:11;101139.69;;;25.18;41.67
22572;BME280;11452;53.368;14.658;2022-07-23T17:17:18;101146.86;;;25.11;40.19
22572;BME280;11452;53.368;14.658;2022-07-23T17:22:23;101149.41;;;25.53;41.57
22572;BME280;11452;53.368;14.658;2022-07-23T17:27:29;101150.56;;;25.87;41.03
22572;BME280;11452;53.368;14.658;2022-07-23T17:32:34;101150.75;;;25.62;39.32
22572;BME280;11452;53.368;14.658;2022-07-23T17:37:40;101160.72;;;25.38;39.65
22572;BME280;11452;53.368;14.658;2022-07-23T17:42:46;101161.92;;;25.36;39.37
22572;BME280;11452;53.368;14.658;2022-07-23T17:47:53;101164.14;;;25.36;38.80
22572;BME280;11452;53.368;14.658;2022-07-23T17:52:59;101156.77;;;25.45;38.76
22572;BME280;11452;53.368;14.658;2022-07-23T17:58:04;101159.84;;;25.54;39.53
22572;BME280;11452;53.368;14.658;2022-07-23T18:03:10;101155.36;;;25.61;39.49
22572;BME280;11452;53.368;14.658;2022-07-23T18:08:16;101151.80;;;25.52;37.58
22572;BME280;11452;53.368;14.658;2022-07-23T18:13:22;101170.64;;;25.03;38.53
22572;BME280;11452;53.368;14.658;2022-07-23T18:18:27;101167.84;;;24.82;37.96
22572;BME280;11452;53.368;14.658;2022-07-23T18:23:33;101173.66;;;24.83;38.74
22572;BME280;11452;53.368;14.658;2022-07-23T18:28:39;101178.70;;;24.54;37.92
22572;BME280;11452;53.368;14.658;2022-07-23T18:33:44;101179.53;;;24.50;38.67
22572;BME280;11452;53.368;14.658;2022-07-23T18:38:50;101187.53;;;24.40;37.61
22572;BME280;11452;53.368;14.658;2022-07-23T18:43:57;101192.51;;;24.10;37.81
22572;BME280;11452;53.368;14.658;2022-07-23T18:49:03;101194.20;;;23.81;38.50
22572;BME280;11452;53.368;14.658;2022-07-23T18:54:09;101195.84;;;23.70;38.51
22572;BME280;11452;53.368;14.658;2022-07-23T18:59:16;101200.53;;;23.60;38.79
22572;BME280;11452;53.368;14.658;2022-07-23T19:04:23;101211.80;;;23.43;38.91
22572;BME280;11452;53.368;14.658;2022-07-23T19:09:31;101210.09;;;23.25;39.26
22572;BME280;11452;53.368;14.658;2022-07-23T19:14:39;101222.47;;;22.97;39.60
22572;BME280;11452;53.368;14.658;2022-07-23T19:19:45;101229.78;;;22.83;39.96
22572;BME280;11452;53.368;14.658;2022-07-23T19:24:50;101225.98;;;22.66;40.27
22572;BME280;11452;53.368;14.658;2022-07-23T19:29:56;101232.67;;;22.54;40.51
22572;BME280;11452;53.368;14.658;2022-07-23T19:35:02;101238.50;;;22.32;41.06
22572;BME280;11452;53.368;14.658;2022-07-23T19:40:09;101249.09;;;22.21;41.23
22572;BME280;11452;53.368;14.658;2022-07-23T19:45:16;101249.38;;;22.04;41.85
22572;BME280;11452;53.368;14.658;2022-07-23T19:50:22;101250.45;;;21.88;42.07
22572;BME280;11452;53.368;14.658;2022-07-23T19:55:28;101249.50;;;21.70;42.50
22572;BME280;11452;53.368;14.658;2022-07-23T20:00:35;101255.94;;;21.59;42.97
22572;BME280;11452;53.368;14.658;2022-07-23T20:05:42;101263.54;;;21.46;43.26
22572;BME280;11452;53.368;14.658;2022-07-23T20:10:48;101265.84;;;21.31;43.67
22572;BME280;11452;53.368;14.658;2022-07-23T20:15:54;101269.59;;;21.15;44.25
22572;BME280;11452;53.368;14.658;2022-07-23T20:20:59;101271.78;;;20.96;44.69
22572;BME280;11452;53.368;14.658;2022-07-23T20:26:05;101278.45;;;20.83;45.21
22572;BME280;11452;53.368;14.658;2022-07-23T20:31:11;101283.51;;;20.72;45.69
22572;BME280;11452;53.368;14.658;2022-07-23T20:36:17;101289.89;;;20.61;46.07
22572;BME280;11452;53.368;14.658;2022-07-23T20:41:22;101288.38;;;20.53;46.55
22572;BME280;11452;53.368;14.658;2022-07-23T20:46:28;101297.29;;;20.50;46.94
22572;BME280;11452;53.368;14.658;2022-07-23T20:51:35;101301.03;;;20.43;47.29
22572;BME280;11452;53.368;14.658;2022-07-23T20:56:40;101307.89;;;20.37;47.53
22572;BME280;11452;53.368;14.658;2022-07-23T21:01:46;101314.18;;;20.17;47.82
22572;BME280;11452;53.368;14.658;2022-07-23T21:06:51;101326.95;;;20.05;48.33
22572;BME280;11452;53.368;14.658;2022-07-23T21:11:58;101328.98;;;19.98;48.60
22572;BME280;11452;53.368;14.658;2022-07-23T21:17:03;101342.91;;;19.78;49.38
22572;BME280;11452;53.368;14.658;2022-07-23T21:22:09;101350.50;;;19.63;50.16
22572;BME280;11452;53.368;14.658;2022-07-23T21:27:14;101351.50;;;19.57;50.68
22572;BME280;11452;53.368;14.658;2022-07-23T21:32:20;101355.31;;;19.60;51.19
22572;BME280;11452;53.368;14.658;2022-07-23T21:37:25;101351.52;;;19.46;51.53
22572;BME280;11452;53.368;14.658;2022-07-23T21:42:31;101344.38;;;19.39;51.93
22572;BME280;11452;53.368;14.658;2022-07-23T21:47:36;101354.37;;;19.33;52.22
22572;BME280;11452;53.368;14.658;2022-07-23T21:52:43;101354.98;;;19.36;52.64
22572;BME280;11452;53.368;14.658;2022-07-23T21:57:49;101364.10;;;19.35;52.82
22572;BME280;11452;53.368;14.658;2022-07-23T22:02:55;101361.77;;;19.31;53.12
22572;BME280;11452;53.368;14.658;2022-07-23T22:08:02;101363.28;;;19.29;53.26
22572;BME280;11452;53.368;14.658;2022-07-23T22:13:08;101366.11;;;19.17;53.60
22572;BME280;11452;53.368;14.658;2022-07-23T22:18:13;101365.75;;;19.16;54.01
22572;BME280;11452;53.368;14.658;2022-07-23T22:23:19;101365.78;;;19.05;54.39
22572;BME280;11452;53.368;14.658;2022-07-23T22:28:24;101376.48;;;18.95;54.48
22572;BME280;11452;53.368;14.658;2022-07-23T22:33:30;101372.33;;;18.85;55.06
22572;BME280;11452;53.368;14.658;2022-07-23T22:38:36;101378.11;;;18.81;55.37
22572;BME280;11452;53.368;14.658;2022-07-23T22:43:41;101373.79;;;18.78;55.59
22572;BME280;11452;53.368;14.658;2022-07-23T22:48:47;101373.79;;;18.78;55.88
22572;BME280;11452;53.368;14.658;2022-07-23T22:53:53;101378.74;;;18.73;55.92
22572;BME280;11452;53.368;14.658;2022-07-23T22:59:00;101376.63;;;18.65;56.21
22572;BME280;11452;53.368;14.658;2022-07-23T23:04:07;101374.39;;;18.54;56.60
22572;BME280;11452;53.368;14.658;2022-07-23T23:09:12;101371.78;;;18.47;56.83
22572;BME280;11452;53.368;14.658;2022-07-23T23:14:18;101367.34;;;18.40;57.13
22572;BME280;11452;53.368;14.658;2022-07-23T23:19:23;101374.48;;;18.41;57.40
22572;BME280;11452;53.368;14.658;2022-07-23T23:24:29;101370.92;;;18.35;57.56
22572;BME280;11452;53.368;14.658;2022-07-23T23:29:34;101368.33;;;18.33;57.91
22572;BME280;11452;53.368;14.658;2022-07-23T23:34:40;101372.72;;;18.23;57.96
22572;BME280;11452;53.368;14.658;2022-07-23T23:39:45;101369.16;;;18.23;58.29
22572;BME280;11452;53.368;14.658;2022-07-23T23:44:51;101372.45;;;18.10;58.44
22572;BME280;11452;53.368;14.658;2022-07-23T23:49:56;101365.52;;;18.00;58.81
22572;BME280;11452;53.368;14.658;2022-07-23T23:55:02;101364.92;;;17.96;59.13
